sensor_id;sensor_type;location;lat;lon;timestamp;P1;durP1;ratioP1;P2;durP2;ratioP2
18947;SDS011;9607;51.600;7.558;2023-05-18T00:00:01;1.23;;;1.10;;
18947;SDS011;9607;51.600;7.558;2023-05-18T00:02:30;2.20;;;1.10;;
18947;SDS011;9607;51.600;7.558;2023-05-18T00:04:56;1.73;;;1.50;;
18947;SDS011;9607;51.600;7.558;2023-05-18T00:07:25;1.88;;;1.48;;
18947;SDS011;9607;51.600;7.558;2023-05-18T00:09:55;1.83;;;1.23;;
18947;SDS011;9607;51.600;7.558;2023-05-18T00:12:22;3.95;;;1.30;;
18947;SDS011;9607;51.600;7.558;2023-05-18T00:14:49;1.85;;;1.45;;
18947;SDS011;9607;51.600;7.558;2023-05-18T00:17:16;1.70;;;1.13;;
18947;SDS011;9607;51.600;7.558;2023-05-18T00:19:44;1.67;;;1.38;;
18947;SDS011;9607;51.600;7.558;2023-05-18T00:22:11;2.35;;;1.38;;
18947;SDS011;9607;51.600;7.558;2023-05-18T00:24:42;1.75;;;1.33;;
18947;SDS011;9607;51.600;7.558;2023-05-18T00:27:10;1.60;;;1.40;;
18947;SDS011;9607;51.600;7.558;2023-05-18T00:29:37;1.92;;;1.48;;
18947;SDS011;9607;51.600;7.558;2023-05-18T00:32:05;1.83;;;1.42;;
18947;SDS011;9607;51.600;7.558;2023-05-18T00:34:32;2.30;;;1.42;;
18947;SDS011;9607;51.600;7.558;2023-05-18T00:36:58;2.00;;;1.50;;
18947;SDS011;9607;51.600;7.558;2023-05-18T00:39:26;2.00;;;1.50;;
18947;SDS011;9607;51.600;7.558;2023-05-18T00:41:53;2.67;;;2.17;;
18947;SDS011;9607;51.600;7.558;2023-05-18T00:44:21;2.92;;;2.10;;
18947;SDS011;9607;51.600;7.558;2023-05-18T00:46:48;4.93;;;1.98;;
18947;SDS011;9607;51.600;7.558;2023-05-18T00:49:15;4.03;;;2.40;;
18947;SDS011;9607;51.600;7.558;2023-05-18T00:51:42;4.43;;;2.15;;
18947;SDS011;9607;51.600;7.558;2023-05-18T00:54:10;5.05;;;2.58;;
18947;SDS011;9607;51.600;7.558;2023-05-18T00:56:37;2.53;;;2.03;;
18947;SDS011;9607;51.600;7.558;2023-05-18T00:59:06;4.57;;;2.10;;
18947;SDS011;9607;51.600;7.558;2023-05-18T01:01:35;3.00;;;2.20;;
18947;SDS011;9607;51.600;7.558;2023-05-18T01:04:07;2.95;;;2.45;;
18947;SDS011;9607;51.600;7.558;2023-05-18T01:06:34;6.18;;;2.65;;
18947;SDS011;9607;51.600;7.558;2023-05-18T01:09:02;3.10;;;2.05;;
18947;SDS011;9607;51.600;7.558;2023-05-18T01:11:32;7.38;;;3.05;;
18947;SDS011;9607;51.600;7.558;2023-05-18T01:14:15;2.88;;;2.15;;
18947;SDS011;9607;51.600;7.558;2023-05-18T01:16:50;5.70;;;3.05;;
18947;SDS011;9607;51.600;7.558;2023-05-18T01:19:34;4.90;;;2.92;;
18947;SDS011;9607;51.600;7.558;2023-05-18T01:22:29;5.75;;;3.08;;
18947;SDS011;9607;51.600;7.558;2023-05-18T01:25:03;7.90;;;3.03;;
18947;SDS011;9607;51.600;7.558;2023-05-18T01:27:35;7.65;;;2.97;;
18947;SDS011;9607;51.600;7.558;2023-05-18T01:30:06;5.13;;;3.20;;
18947;SDS011;9607;51.600;7.558;2023-05-18T01:32:38;4.82;;;3.30;;
18947;SDS011;9607;51.600;7.558;2023-05-18T01:35:05;4.70;;;3.03;;
18947;SDS011;9607;51.600;7.558;2023-05-18T01:37:32;7.80;;;3.67;;
18947;SDS011;9607;51.600;7.558;2023-05-18T01:39:59;5.68;;;3.15;;
18947;SDS011;9607;51.600;7.558;2023-05-18T01:42:28;3.67;;;2.60;;
18947;SDS011;9607;51.600;7.558;2023-05-18T01:45:00;3.53;;;2.45;;
18947;SDS011;9607;51.600;7.558;2023-05-18T01:47:30;4.75;;;2.60;;
18947;SDS011;9607;51.600;7.558;2023-05-18T01:50:01;2.70;;;2.42;;
18947;SDS011;9607;51.600;7.558;2023-05-18T01:52:31;4.72;;;2.70;;
18947;SDS011;9607;51.600;7.558;2023-05-18T01:55:02;3.05;;;2.58;;
18947;SDS011;9607;51.600;7.558;2023-05-18T01:57:31;4.20;;;2.72;;
18947;SDS011;9607;51.600;7.558;2023-05-18T02:00:01;6.90;;;3.20;;
18947;SDS011;9607;51.600;7.558;2023-05-18T02:02:32;5.78;;;2.63;;
18947;SDS011;9607;51.600;7.558;2023-05-18T02:04:58;5.93;;;3.15;;
18947;SDS011;9607;51.600;7.558;2023-05-18T02:07:25;5.25;;;3.00;;
18947;SDS011;9607;51.600;7.558;2023-05-18T02:09:52;4.20;;;3.20;;
18947;SDS011;9607;51.600;7.558;2023-05-18T02:12:19;4.25;;;2.88;;
18947;SDS011;9607;51.600;7.558;2023-05-18T02:14:46;2.55;;;2.35;;
18947;SDS011;9607;51.600;7.558;2023-05-18T02:17:14;3.33;;;2.42;;
18947;SDS011;9607;51.600;7.558;2023-05-18T02:19:40;2.95;;;2.65;;
18947;SDS011;9607;51.600;7.558;2023-05-18T02:22:07;4.30;;;2.50;;
18947;SDS011;9607;51.600;7.558;2023-05-18T02:24:34;3.15;;;2.20;;
18947;SDS011;9607;51.600;7.558;2023-05-18T02:27:01;2.70;;;2.50;;
18947;SDS011;9607;51.600;7.558;2023-05-18T02:29:28;3.47;;;2.08;;
18947;SDS011;9607;51.600;7.558;2023-05-18T02:31:55;2.20;;;2.00;;
18947;SDS011;9607;51.600;7.558;2023-05-18T02:34:23;3.33;;;2.10;;
18947;SDS011;9607;51.600;7.558;2023-05-18T02:36:51;2.55;;;1.88;;
18947;SDS011;9607;51.600;7.558;2023-05-18T02:39:21;2.13;;;1.90;;
18947;SDS011;9607;51.600;7.558;2023-05-18T02:41:48;2.97;;;1.90;;
18947;SDS011;9607;51.600;7.558;2023-05-18T02:44:15;4.00;;;2.20;;
18947;SDS011;9607;51.600;7.558;2023-05-18T02:46:42;2.58;;;2.38;;
18947;SDS011;9607;51.600;7.558;2023-05-18T02:49:08;3.03;;;2.17;;
18947;SDS011;9607;51.600;7.558;2023-05-18T02:51:37;4.28;;;2.55;;
18947;SDS011;9607;51.600;7.558;2023-05-18T02:54:04;3.47;;;2.75;;
18947;SDS011;9607;51.600;7.558;2023-05-18T02:56:31;2.97;;;2.67;;
18947;SDS011;9607;51.600;7.558;2023-05-18T02:58:58;2.88;;;2.50;;
18947;SDS011;9607;51.600;7.558;2023-05-18T03:01:26;3.58;;;2.25;;
18947;SDS011;9607;51.600;7.558;2023-05-18T03:03:52;2.25;;;1.90;;
18947;SDS011;9607;51.600;7.558;2023-05-18T03:06:21;4.25;;;2.50;;
18947;SDS011;9607;51.600;7.558;2023-05-18T03:08:51;2.95;;;2.65;;
18947;SDS011;9607;51.600;7.558;2023-05-18T03:11:18;3.33;;;2.88;;
18947;SDS011;9607;51.600;7.558;2023-05-18T03:13:46;3.33;;;2.65;;
18947;SDS011;9607;51.600;7.558;2023-05-18T03:16:13;3.45;;;2.60;;
18947;SDS011;9607;51.600;7.558;2023-05-18T03:18:40;3.33;;;2.70;;
18947;SDS011;9607;51.600;7.558;2023-05-18T03:21:07;4.32;;;2.90;;
18947;SDS011;9607;51.600;7.558;2023-05-18T03:23:34;3.67;;;2.70;;
18947;SDS011;9607;51.600;7.558;2023-05-18T03:26:02;3.05;;;2.35;;
18947;SDS011;9607;51.600;7.558;2023-05-18T03:28:35;2.92;;;2.67;;
18947;SDS011;9607;51.600;7.558;2023-05-18T03:31:02;2.63;;;2.42;;
18947;SDS011;9607;51.600;7.558;2023-05-18T03:33:29;4.45;;;2.80;;
18947;SDS011;9607;51.600;7.558;2023-05-18T03:35:59;3.97;;;2.92;;
18947;SDS011;9607;51.600;7.558;2023-05-18T03:38:27;7.28;;;3.30;;
18947;SDS011;9607;51.600;7.558;2023-05-18T03:40:54;5.13;;;3.45;;
18947;SDS011;9607;51.600;7.558;2023-05-18T03:43:22;4.60;;;3.70;;
18947;SDS011;9607;51.600;7.558;2023-05-18T03:45:49;6.63;;;3.70;;
18947;SDS011;9607;51.600;7.558;2023-05-18T03:48:16;5.32;;;3.40;;
18947;SDS011;9607;51.600;7.558;2023-05-18T03:50:43;5.35;;;4.10;;
18947;SDS011;9607;51.600;7.558;2023-05-18T03:53:10;5.80;;;3.80;;
18947;SDS011;9607;51.600;7.558;2023-05-18T03:55:37;6.68;;;4.53;;
18947;SDS011;9607;51.600;7.558;2023-05-18T03:58:05;5.18;;;3.83;;
18947;SDS011;9607;51.600;7.558;2023-05-18T04:00:34;5.55;;;4.38;;
18947;SDS011;9607;51.600;7.558;2023-05-18T04:03:01;4.15;;;3.47;;
18947;SDS011;9607;51.600;7.558;2023-05-18T04:05:28;4.28;;;3.42;;
18947;SDS011;9607;51.600;7.558;2023-05-18T04:07:55;7.00;;;3.65;;
18947;SDS011;9607;51.600;7.558;2023-05-18T04:10:22;6.78;;;4.28;;
18947;SDS011;9607;51.600;7.558;2023-05-18T04:12:50;5.25;;;3.97;;
18947;SDS011;9607;51.600;7.558;2023-05-18T04:15:17;6.75;;;4.32;;
18947;SDS011;9607;51.600;7.558;2023-05-18T04:17:45;8.23;;;4.07;;
18947;SDS011;9607;51.600;7.558;2023-05-18T04:20:14;5.20;;;3.95;;
18947;SDS011;9607;51.600;7.558;2023-05-18T04:22:41;6.72;;;5.03;;
18947;SDS011;9607;51.600;7.558;2023-05-18T04:25:10;7.22;;;5.43;;
18947;SDS011;9607;51.600;7.558;2023-05-18T04:27:38;6.63;;;4.30;;
18947;SDS011;9607;51.600;7.558;2023-05-18T04:30:06;6.85;;;4.15;;
18947;SDS011;9607;51.600;7.558;2023-05-18T04:32:35;6.63;;;4.38;;
18947;SDS011;9607;51.600;7.558;2023-05-18T04:35:04;5.40;;;4.18;;
18947;SDS011;9607;51.600;7.558;2023-05-18T04:37:32;5.68;;;4.45;;
18947;SDS011;9607;51.600;7.558;2023-05-18T04:39:59;7.07;;;4.78;;
18947;SDS011;9607;51.600;7.558;2023-05-18T04:42:31;5.97;;;4.38;;
18947;SDS011;9607;51.600;7.558;2023-05-18T04:44:59;5.55;;;3.63;;
18947;SDS011;9607;51.600;7.558;2023-05-18T04:47:27;6.00;;;4.28;;
18947;SDS011;9607;51.600;7.558;2023-05-18T04:49:54;7.38;;;4.90;;
18947;SDS011;9607;51.600;7.558;2023-05-18T04:52:22;5.60;;;3.72;;
18947;SDS011;9607;51.600;7.558;2023-05-18T04:54:50;6.55;;;4.25;;
18947;SDS011;9607;51.600;7.558;2023-05-18T04:57:16;6.22;;;4.07;;
18947;SDS011;9607;51.600;7.558;2023-05-18T04:59:43;4.75;;;3.65;;
18947;SDS011;9607;51.600;7.558;2023-05-18T05:02:11;5.38;;;3.97;;
18947;SDS011;9607;51.600;7.558;2023-05-18T05:04:38;5.60;;;3.67;;
18947;SDS011;9607;51.600;7.558;2023-05-18T05:07:05;4.93;;;3.20;;
18947;SDS011;9607;51.600;7.558;2023-05-18T05:09:33;5.72;;;3.30;;
18947;SDS011;9607;51.600;7.558;2023-05-18T05:12:00;6.03;;;4.00;;
18947;SDS011;9607;51.600;7.558;2023-05-18T05:14:27;6.55;;;4.15;;
18947;SDS011;9607;51.600;7.558;2023-05-18T05:16:54;4.38;;;3.58;;
18947;SDS011;9607;51.600;7.558;2023-05-18T05:19:21;7.85;;;4.45;;
18947;SDS011;9607;51.600;7.558;2023-05-18T05:21:48;5.32;;;3.58;;
18947;SDS011;9607;51.600;7.558;2023-05-18T05:24:14;5.80;;;3.60;;
18947;SDS011;9607;51.600;7.558;2023-05-18T05:26:42;6.30;;;3.90;;
18947;SDS011;9607;51.600;7.558;2023-05-18T05:29:09;7.60;;;4.28;;
18947;SDS011;9607;51.600;7.558;2023-05-18T05:31:36;5.78;;;4.03;;
18947;SDS011;9607;51.600;7.558;2023-05-18T05:34:03;5.97;;;4.07;;
18947;SDS011;9607;51.600;7.558;2023-05-18T05:36:30;8.20;;;4.05;;
18947;SDS011;9607;51.600;7.558;2023-05-18T05:38:57;4.93;;;2.83;;
18947;SDS011;9607;51.600;7.558;2023-05-18T05:41:24;8.43;;;3.70;;
18947;SDS011;9607;51.600;7.558;2023-05-18T05:43:52;8.75;;;4.78;;
18947;SDS011;9607;51.600;7.558;2023-05-18T05:46:19;7.47;;;3.70;;
18947;SDS011;9607;51.600;7.558;2023-05-18T05:48:46;5.20;;;2.92;;
18947;SDS011;9607;51.600;7.558;2023-05-18T05:51:13;7.18;;;3.90;;
18947;SDS011;9607;51.600;7.558;2023-05-18T05:53:40;6.78;;;3.40;;
18947;SDS011;9607;51.600;7.558;2023-05-18T05:56:07;7.15;;;3.40;;
18947;SDS011;9607;51.600;7.558;2023-05-18T05:58:34;5.13;;;3.58;;
18947;SDS011;9607;51.600;7.558;2023-05-18T06:01:02;12.48;;;3.78;;
18947;SDS011;9607;51.600;7.558;2023-05-18T06:03:29;5.15;;;3.30;;
18947;SDS011;9607;51.600;7.558;2023-05-18T06:05:56;5.43;;;2.83;;
18947;SDS011;9607;51.600;7.558;2023-05-18T06:08:23;9.30;;;3.50;;
18947;SDS011;9607;51.600;7.558;2023-05-18T06:10:50;7.47;;;3.50;;
18947;SDS011;9607;51.600;7.558;2023-05-18T06:13:16;7.95;;;3.50;;
18947;SDS011;9607;51.600;7.558;2023-05-18T06:15:43;6.53;;;2.70;;
18947;SDS011;9607;51.600;7.558;2023-05-18T06:18:11;6.32;;;2.80;;
18947;SDS011;9607;51.600;7.558;2023-05-18T06:20:38;5.82;;;3.00;;
18947;SDS011;9607;51.600;7.558;2023-05-18T06:23:05;6.35;;;2.85;;
18947;SDS011;9607;51.600;7.558;2023-05-18T06:25:32;5.72;;;2.85;;
18947;SDS011;9607;51.600;7.558;2023-05-18T06:27:59;5.43;;;2.88;;
18947;SDS011;9607;51.600;7.558;2023-05-18T06:30:26;7.15;;;3.33;;
18947;SDS011;9607;51.600;7.558;2023-05-18T06:32:52;7.53;;;2.88;;
18947;SDS011;9607;51.600;7.558;2023-05-18T06:35:21;6.75;;;3.00;;
18947;SDS011;9607;51.600;7.558;2023-05-18T06:37:49;7.53;;;3.00;;
18947;SDS011;9607;51.600;7.558;2023-05-18T06:40:15;6.78;;;3.00;;
18947;SDS011;9607;51.600;7.558;2023-05-18T06:42:42;6.97;;;2.60;;
18947;SDS011;9607;51.600;7.558;2023-05-18T06:45:13;3.88;;;2.10;;
18947;SDS011;9607;51.600;7.558;2023-05-18T06:47:40;6.50;;;2.63;;
18947;SDS011;9607;51.600;7.558;2023-05-18T06:50:07;5.28;;;2.10;;
18947;SDS011;9607;51.600;7.558;2023-05-18T06:52:36;6.07;;;2.55;;
18947;SDS011;9607;51.600;7.558;2023-05-18T06:55:04;6.03;;;2.53;;
18947;SDS011;9607;51.600;7.558;2023-05-18T06:57:31;4.35;;;2.42;;
18947;SDS011;9607;51.600;7.558;2023-05-18T06:59:58;7.43;;;2.90;;
18947;SDS011;9607;51.600;7.558;2023-05-18T07:02:25;8.40;;;2.67;;
18947;SDS011;9607;51.600;7.558;2023-05-18T07:04:52;6.68;;;2.65;;
18947;SDS011;9607;51.600;7.558;2023-05-18T07:07:19;4.30;;;2.05;;
18947;SDS011;9607;51.600;7.558;2023-05-18T07:09:47;5.97;;;1.90;;
18947;SDS011;9607;51.600;7.558;2023-05-18T07:12:14;4.88;;;2.10;;
18947;SDS011;9607;51.600;7.558;2023-05-18T07:14:41;4.95;;;1.80;;
18947;SDS011;9607;51.600;7.558;2023-05-18T07:17:08;10.55;;;3.28;;
18947;SDS011;9607;51.600;7.558;2023-05-18T07:19:35;6.18;;;2.60;;
18947;SDS011;9607;51.600;7.558;2023-05-18T07:22:03;4.22;;;1.67;;
18947;SDS011;9607;51.600;7.558;2023-05-18T07:24:31;2.22;;;1.48;;
18947;SDS011;9607;51.600;7.558;2023-05-18T07:26:59;3.92;;;2.10;;
18947;SDS011;9607;51.600;7.558;2023-05-18T07:29:27;2.92;;;1.40;;
18947;SDS011;9607;51.600;7.558;2023-05-18T07:31:54;3.63;;;1.83;;
18947;SDS011;9607;51.600;7.558;2023-05-18T07:34:20;5.00;;;1.90;;
18947;SDS011;9607;51.600;7.558;2023-05-18T07:36:48;6.22;;;2.00;;
18947;SDS011;9607;51.600;7.558;2023-05-18T07:39:15;4.38;;;2.00;;
18947;SDS011;9607;51.600;7.558;2023-05-18T07:41:43;4.60;;;1.98;;
18947;SDS011;9607;51.600;7.558;2023-05-18T07:44:12;4.35;;;1.92;;
18947;SDS011;9607;51.600;7.558;2023-05-18T07:46:39;4.72;;;1.73;;
18947;SDS011;9607;51.600;7.558;2023-05-18T07:49:07;8.30;;;2.50;;
18947;SDS011;9607;51.600;7.558;2023-05-18T07:51:33;5.75;;;2.10;;
18947;SDS011;9607;51.600;7.558;2023-05-18T07:54:00;4.95;;;1.88;;
18947;SDS011;9607;51.600;7.558;2023-05-18T07:56:27;6.68;;;2.35;;
18947;SDS011;9607;51.600;7.558;2023-05-18T07:58:54;7.00;;;2.20;;
18947;SDS011;9607;51.600;7.558;2023-05-18T08:01:22;5.20;;;1.80;;
18947;SDS011;9607;51.600;7.558;2023-05-18T08:03:51;4.35;;;1.80;;
18947;SDS011;9607;51.600;7.558;2023-05-18T08:06:18;1.98;;;1.25;;
18947;SDS011;9607;51.600;7.558;2023-05-18T08:08:45;8.02;;;2.30;;
18947;SDS011;9607;51.600;7.558;2023-05-18T08:11:12;7.72;;;2.65;;
18947;SDS011;9607;51.600;7.558;2023-05-18T08:13:39;3.53;;;1.67;;
18947;SDS011;9607;51.600;7.558;2023-05-18T08:16:06;7.35;;;2.88;;
18947;SDS011;9607;51.600;7.558;2023-05-18T08:18:34;4.82;;;2.00;;
18947;SDS011;9607;51.600;7.558;2023-05-18T08:21:01;8.00;;;2.40;;
18947;SDS011;9607;51.600;7.558;2023-05-18T08:23:28;6.70;;;2.20;;
18947;SDS011;9607;51.600;7.558;2023-05-18T08:25:55;7.57;;;2.63;;
18947;SDS011;9607;51.600;7.558;2023-05-18T08:28:24;5.53;;;2.20;;
18947;SDS011;9607;51.600;7.558;2023-05-18T08:30:51;5.20;;;2.20;;
18947;SDS011;9607;51.600;7.558;2023-05-18T08:33:17;4.22;;;1.95;;
18947;SDS011;9607;51.600;7.558;2023-05-18T08:35:46;6.75;;;2.13;;
18947;SDS011;9607;51.600;7.558;2023-05-18T08:38:13;5.43;;;2.20;;
18947;SDS011;9607;51.600;7.558;2023-05-18T08:40:42;4.20;;;1.75;;
18947;SDS011;9607;51.600;7.558;2023-05-18T08:43:14;4.65;;;2.05;;
18947;SDS011;9607;51.600;7.558;2023-05-18T08:45:47;7.45;;;2.58;;
18947;SDS011;9607;51.600;7.558;2023-05-18T08:48:17;5.15;;;2.00;;
18947;SDS011;9607;51.600;7.558;2023-05-18T08:50:48;6.22;;;2.75;;
18947;SDS011;9607;51.600;7.558;2023-05-18T08:53:18;6.60;;;2.00;;
18947;SDS011;9607;51.600;7.558;2023-05-18T08:55:49;6.63;;;1.90;;
18947;SDS011;9607;51.600;7.558;2023-05-18T08:58:18;6.03;;;2.55;;
18947;SDS011;9607;51.600;7.558;2023-05-18T09:00:48;6.57;;;2.60;;
18947;SDS011;9607;51.600;7.558;2023-05-18T09:03:18;6.95;;;2.47;;
18947;SDS011;9607;51.600;7.558;2023-05-18T09:05:46;5.13;;;1.85;;
18947;SDS011;9607;51.600;7.558;2023-05-18T09:08:17;7.18;;;2.20;;
18947;SDS011;9607;51.600;7.558;2023-05-18T09:10:44;3.83;;;2.13;;
18947;SDS011;9607;51.600;7.558;2023-05-18T09:13:12;8.02;;;3.17;;
18947;SDS011;9607;51.600;7.558;2023-05-18T09:15:42;7.82;;;2.97;;
18947;SDS011;9607;51.600;7.558;2023-05-18T09:18:08;9.13;;;3.20;;
18947;SDS011;9607;51.600;7.558;2023-05-18T09:20:36;6.13;;;2.20;;
18947;SDS011;9607;51.600;7.558;2023-05-18T09:23:05;5.93;;;2.30;;
18947;SDS011;9607;51.600;7.558;2023-05-18T09:25:31;5.38;;;2.03;;
18947;SDS011;9607;51.600;7.558;2023-05-18T09:27:59;5.50;;;2.25;;
18947;SDS011;9607;51.600;7.558;2023-05-18T09:30:28;6.40;;;2.03;;
18947;SDS011;9607;51.600;7.558;2023-05-18T09:32:54;5.75;;;2.20;;
18947;SDS011;9607;51.600;7.558;2023-05-18T09:35:23;4.88;;;1.40;;
18947;SDS011;9607;51.600;7.558;2023-05-18T09:37:50;4.85;;;2.10;;
18947;SDS011;9607;51.600;7.558;2023-05-18T09:40:18;4.18;;;1.90;;
18947;SDS011;9607;51.600;7.558;2023-05-18T09:42:53;5.95;;;2.42;;
18947;SDS011;9607;51.600;7.558;2023-05-18T09:45:22;6.25;;;2.50;;
18947;SDS011;9607;51.600;7.558;2023-05-18T09:47:50;6.13;;;2.47;;
18947;SDS011;9607;51.600;7.558;2023-05-18T09:50:18;9.48;;;3.22;;
18947;SDS011;9607;51.600;7.558;2023-05-18T09:52:45;4.90;;;2.10;;
18947;SDS011;9607;51.600;7.558;2023-05-18T09:55:14;5.97;;;2.30;;
18947;SDS011;9607;51.600;7.558;2023-05-18T09:57:43;7.80;;;2.83;;
18947;SDS011;9607;51.600;7.558;2023-05-18T10:00:11;7.00;;;2.85;;
18947;SDS011;9607;51.600;7.558;2023-05-18T10:02:41;5.28;;;2.53;;
18947;SDS011;9607;51.600;7.558;2023-05-18T10:05:19;7.35;;;2.28;;
18947;SDS011;9607;51.600;7.558;2023-05-18T10:07:46;3.33;;;1.75;;
18947;SDS011;9607;51.600;7.558;2023-05-18T10:10:16;6.43;;;2.35;;
18947;SDS011;9607;51.600;7.558;2023-05-18T10:12:45;11.38;;;3.35;;
18947;SDS011;9607;51.600;7.558;2023-05-18T10:15:13;5.20;;;2.40;;
18947;SDS011;9607;51.600;7.558;2023-05-18T10:17:40;8.35;;;2.70;;
18947;SDS011;9607;51.600;7.558;2023-05-18T10:20:09;6.28;;;2.80;;
18947;SDS011;9607;51.600;7.558;2023-05-18T10:22:37;6.72;;;2.05;;
18947;SDS011;9607;51.600;7.558;2023-05-18T10:25:05;5.35;;;1.88;;
18947;SDS011;9607;51.600;7.558;2023-05-18T10:27:36;6.22;;;2.20;;
18947;SDS011;9607;51.600;7.558;2023-05-18T10:30:06;5.20;;;2.03;;
18947;SDS011;9607;51.600;7.558;2023-05-18T10:32:34;6.63;;;2.17;;
18947;SDS011;9607;51.600;7.558;2023-05-18T10:35:02;8.00;;;2.35;;
18947;SDS011;9607;51.600;7.558;2023-05-18T10:37:32;3.38;;;1.73;;
18947;SDS011;9607;51.600;7.558;2023-05-18T10:40:01;5.68;;;2.50;;
18947;SDS011;9607;51.600;7.558;2023-05-18T10:42:30;5.97;;;2.38;;
18947;SDS011;9607;51.600;7.558;2023-05-18T10:44:58;7.18;;;3.20;;
18947;SDS011;9607;51.600;7.558;2023-05-18T10:47:27;10.18;;;3.38;;
18947;SDS011;9607;51.600;7.558;2023-05-18T10:49:54;8.20;;;2.58;;
18947;SDS011;9607;51.600;7.558;2023-05-18T10:52:23;8.73;;;2.97;;
18947;SDS011;9607;51.600;7.558;2023-05-18T10:54:55;6.07;;;2.33;;
18947;SDS011;9607;51.600;7.558;2023-05-18T10:57:23;6.63;;;2.40;;
18947;SDS011;9607;51.600;7.558;2023-05-18T10:59:55;6.20;;;3.05;;
18947;SDS011;9607;51.600;7.558;2023-05-18T11:02:23;7.22;;;2.35;;
18947;SDS011;9607;51.600;7.558;2023-05-18T11:04:53;8.77;;;2.67;;
18947;SDS011;9607;51.600;7.558;2023-05-18T11:07:21;6.10;;;2.08;;
18947;SDS011;9607;51.600;7.558;2023-05-18T11:09:50;7.60;;;2.90;;
18947;SDS011;9607;51.600;7.558;2023-05-18T11:12:17;5.55;;;2.40;;
18947;SDS011;9607;51.600;7.558;2023-05-18T11:14:47;8.98;;;2.72;;
18947;SDS011;9607;51.600;7.558;2023-05-18T11:17:16;5.40;;;2.33;;
18947;SDS011;9607;51.600;7.558;2023-05-18T11:22:44;6.95;;;2.38;;
18947;SDS011;9607;51.600;7.558;2023-05-18T11:28:02;9.65;;;2.65;;
18947;SDS011;9607;51.600;7.558;2023-05-18T11:30:44;3.70;;;1.58;;
18947;SDS011;9607;51.600;7.558;2023-05-18T11:33:21;5.22;;;2.30;;
18947;SDS011;9607;51.600;7.558;2023-05-18T11:35:54;7.18;;;3.10;;
18947;SDS011;9607;51.600;7.558;2023-05-18T11:38:44;6.72;;;2.28;;
18947;SDS011;9607;51.600;7.558;2023-05-18T11:41:29;9.10;;;2.72;;
18947;SDS011;9607;51.600;7.558;2023-05-18T11:44:04;4.63;;;2.08;;
18947;SDS011;9607;51.600;7.558;2023-05-18T11:46:49;7.20;;;2.40;;
18947;SDS011;9607;51.600;7.558;2023-05-18T11:49:18;8.38;;;2.65;;
18947;SDS011;9607;51.600;7.558;2023-05-18T11:51:55;8.20;;;3.13;;
18947;SDS011;9607;51.600;7.558;2023-05-18T11:54:33;7.70;;;2.80;;
18947;SDS011;9607;51.600;7.558;2023-05-18T11:57:04;7.05;;;2.90;;
18947;SDS011;9607;51.600;7.558;2023-05-18T11:59:32;6.40;;;2.63;;
18947;SDS011;9607;51.600;7.558;2023-05-18T12:02:02;8.60;;;2.35;;
18947;SDS011;9607;51.600;7.558;2023-05-18T12:04:30;5.82;;;2.78;;
18947;SDS011;9607;51.600;7.558;2023-05-18T12:07:00;5.75;;;2.45;;
18947;SDS011;9607;51.600;7.558;2023-05-18T12:09:30;6.60;;;2.25;;
18947;SDS011;9607;51.600;7.558;2023-05-18T12:11:57;5.63;;;2.40;;
18947;SDS011;9607;51.600;7.558;2023-05-18T12:14:27;7.50;;;2.90;;
18947;SDS011;9607;51.600;7.558;2023-05-18T12:16:55;5.80;;;2.15;;
18947;SDS011;9607;51.600;7.558;2023-05-18T12:19:25;5.63;;;1.80;;
18947;SDS011;9607;51.600;7.558;2023-05-18T12:21:52;6.15;;;2.38;;
18947;SDS011;9607;51.600;7.558;2023-05-18T12:24:20;4.85;;;1.92;;
18947;SDS011;9607;51.600;7.558;2023-05-18T12:26:47;4.15;;;1.42;;
18947;SDS011;9607;51.600;7.558;2023-05-18T12:29:15;6.55;;;2.33;;
18947;SDS011;9607;51.600;7.558;2023-05-18T12:31:44;3.63;;;1.70;;
18947;SDS011;9607;51.600;7.558;2023-05-18T12:34:13;7.60;;;2.30;;
18947;SDS011;9607;51.600;7.558;2023-05-18T12:36:41;4.10;;;1.90;;
18947;SDS011;9607;51.600;7.558;2023-05-18T12:39:17;5.05;;;1.75;;
18947;SDS011;9607;51.600;7.558;2023-05-18T12:41:45;3.42;;;1.90;;
18947;SDS011;9607;51.600;7.558;2023-05-18T12:44:12;6.28;;;2.03;;
18947;SDS011;9607;51.600;7.558;2023-05-18T12:46:40;6.93;;;2.00;;
18947;SDS011;9607;51.600;7.558;2023-05-18T12:49:07;5.05;;;2.08;;
18947;SDS011;9607;51.600;7.558;2023-05-18T12:51:36;6.32;;;2.55;;
18947;SDS011;9607;51.600;7.558;2023-05-18T12:54:04;4.00;;;1.95;;
18947;SDS011;9607;51.600;7.558;2023-05-18T12:56:49;3.92;;;1.73;;
18947;SDS011;9607;51.600;7.558;2023-05-18T12:59:16;5.95;;;2.00;;
18947;SDS011;9607;51.600;7.558;2023-05-18T13:01:44;3.08;;;1.55;;
18947;SDS011;9607;51.600;7.558;2023-05-18T13:04:12;2.63;;;1.70;;
18947;SDS011;9607;51.600;7.558;2023-05-18T13:06:39;3.92;;;1.83;;
18947;SDS011;9607;51.600;7.558;2023-05-18T13:09:06;3.65;;;1.63;;
18947;SDS011;9607;51.600;7.558;2023-05-18T13:11:34;4.10;;;1.90;;
18947;SDS011;9607;51.600;7.558;2023-05-18T13:14:02;9.80;;;2.00;;
18947;SDS011;9607;51.600;7.558;2023-05-18T13:16:32;4.57;;;1.80;;
18947;SDS011;9607;51.600;7.558;2023-05-18T13:19:00;3.92;;;1.70;;
18947;SDS011;9607;51.600;7.558;2023-05-18T13:21:29;3.63;;;1.50;;
18947;SDS011;9607;51.600;7.558;2023-05-18T13:23:56;6.95;;;2.40;;
18947;SDS011;9607;51.600;7.558;2023-05-18T13:26:23;4.95;;;2.05;;
18947;SDS011;9607;51.600;7.558;2023-05-18T13:28:51;3.83;;;1.73;;
18947;SDS011;9607;51.600;7.558;2023-05-18T13:31:20;5.78;;;1.80;;
18947;SDS011;9607;51.600;7.558;2023-05-18T13:33:47;5.38;;;1.90;;
18947;SDS011;9607;51.600;7.558;2023-05-18T13:36:15;6.05;;;2.22;;
18947;SDS011;9607;51.600;7.558;2023-05-18T13:38:42;4.85;;;1.98;;
18947;SDS011;9607;51.600;7.558;2023-05-18T13:41:09;3.83;;;1.30;;
18947;SDS011;9607;51.600;7.558;2023-05-18T13:43:39;3.80;;;1.80;;
18947;SDS011;9607;51.600;7.558;2023-05-18T13:46:06;4.95;;;2.00;;
18947;SDS011;9607;51.600;7.558;2023-05-18T13:48:34;1.95;;;1.05;;
18947;SDS011;9607;51.600;7.558;2023-05-18T13:51:01;3.17;;;1.70;;
18947;SDS011;9607;51.600;7.558;2023-05-18T13:53:28;3.22;;;1.63;;
18947;SDS011;9607;51.600;7.558;2023-05-18T13:55:55;7.70;;;2.17;;
18947;SDS011;9607;51.600;7.558;2023-05-18T13:58:21;5.65;;;2.25;;
18947;SDS011;9607;51.600;7.558;2023-05-18T14:00:48;4.68;;;1.83;;
18947;SDS011;9607;51.600;7.558;2023-05-18T14:03:18;5.43;;;1.55;;
18947;SDS011;9607;51.600;7.558;2023-05-18T14:05:46;4.30;;;1.73;;
18947;SDS011;9607;51.600;7.558;2023-05-18T14:08:13;2.60;;;1.48;;
18947;SDS011;9607;51.600;7.558;2023-05-18T14:10:40;5.68;;;2.00;;
18947;SDS011;9607;51.600;7.558;2023-05-18T14:13:07;4.65;;;1.90;;
18947;SDS011;9607;51.600;7.558;2023-05-18T14:15:34;5.82;;;2.25;;
18947;SDS011;9607;51.600;7.558;2023-05-18T14:18:01;5.97;;;1.70;;
18947;SDS011;9607;51.600;7.558;2023-05-18T14:20:28;5.10;;;1.77;;
18947;SDS011;9607;51.600;7.558;2023-05-18T14:22:56;4.30;;;1.70;;
18947;SDS011;9607;51.600;7.558;2023-05-18T14:25:23;4.07;;;1.67;;
18947;SDS011;9607;51.600;7.558;2023-05-18T14:27:50;3.67;;;1.48;;
18947;SDS011;9607;51.600;7.558;2023-05-18T14:30:16;3.95;;;1.73;;
18947;SDS011;9607;51.600;7.558;2023-05-18T14:32:43;5.40;;;1.52;;
18947;SDS011;9607;51.600;7.558;2023-05-18T14:35:10;2.22;;;1.27;;
18947;SDS011;9607;51.600;7.558;2023-05-18T14:37:37;4.10;;;1.88;;
18947;SDS011;9607;51.600;7.558;2023-05-18T14:40:06;6.22;;;2.13;;
18947;SDS011;9607;51.600;7.558;2023-05-18T14:42:33;2.92;;;1.80;;
18947;SDS011;9607;51.600;7.558;2023-05-18T14:45:01;4.03;;;1.50;;
18947;SDS011;9607;51.600;7.558;2023-05-18T14:47:28;4.95;;;1.85;;
18947;SDS011;9607;51.600;7.558;2023-05-18T14:49:55;5.57;;;1.83;;
18947;SDS011;9607;51.600;7.558;2023-05-18T14:52:22;4.15;;;1.83;;
18947;SDS011;9607;51.600;7.558;2023-05-18T14:54:48;6.38;;;2.33;;
18947;SDS011;9607;51.600;7.558;2023-05-18T14:57:17;3.90;;;1.60;;
18947;SDS011;9607;51.600;7.558;2023-05-18T14:59:44;5.50;;;2.63;;
18947;SDS011;9607;51.600;7.558;2023-05-18T15:02:11;4.82;;;1.88;;
18947;SDS011;9607;51.600;7.558;2023-05-18T15:04:38;8.32;;;2.72;;
18947;SDS011;9607;51.600;7.558;2023-05-18T15:07:05;4.32;;;2.40;;
18947;SDS011;9607;51.600;7.558;2023-05-18T15:09:32;7.57;;;2.45;;
18947;SDS011;9607;51.600;7.558;2023-05-18T15:11:59;5.10;;;2.05;;